ADDS METAR Data INFO
IDs: Format: Raw Decoded Include TAF

Data at: 0452 UTC 21 Feb 2018

KCIU 201505Z AUTO 12014KT 1 1/2SM UP BR OVC003 M05/M06 A2987 RMK AO2 P0000 FZRANO
KCIU 201456Z AUTO 12012KT 2 1/2SM UP BR OVC003 M05/M06 A2987 RMK AO2 VIS 1 1/2V3 SLP144 P0000 60000 T10501056 55001 FZRANO
KCIU 201433Z AUTO 13012KT 2SM UP BR OVC003 M06/M06 A2988 RMK AO2 P0000 FZRANO
KCIU 201416Z AUTO 12013G18KT 1 1/2SM UP BR OVC003 M06/M06 A2988 RMK AO2 P0000 FZRANO
KCIU 201356Z AUTO 11014KT 1 1/4SM UP BR OVC005 M06/M07 A2986 RMK AO2 SNB03E13B25E35 SLP141 P0000 T10611067 FZRANO
KCIU 201256Z AUTO 11014KT 1 3/4SM UP BR OVC005 M06/M07 A2988 RMK AO2 UPB1158SNE1158 SLP145 P0000 T10611072 FZRANO
KCIU 201254Z AUTO 11013KT 1 3/4SM UP BR OVC005 M06/M07 A2987 RMK AO2 UPB1158SNE1158 P0000 FZRANO
KCIU 201239Z AUTO 11014KT 2SM UP BR OVC005 M06/M07 A2987 RMK AO2 UPB1158SNE1158 P0000 FZRANO
KCIU 201156Z AUTO 09008KT 3SM -SN BR OVC005 M07/M08 A2990 RMK AO2 SNE05B48 SLP151 P0000 60000 T10671078 11067 21072 56015 FZRANO
KCIU 201056Z AUTO 09013KT 10SM -SN OVC005 M07/M08 A2990 RMK AO2 UPB29E42SNB20E29B54 SLP155 P0000 T10671078 FZRANO
KCIU 200956Z AUTO 08010KT 8SM OVC005 M07/M08 A2993 RMK AO2 UPE0858B21E53SNB01E21B28E38 SLP166 P0000 T10671078 FZRANO
KCIU 200921Z AUTO 08011KT 7SM UP OVC005 M07/M07 A2993 RMK AO2 UPE0858B21SNB01E21 P0000 FZRANO
KCIU 200856Z AUTO 08011KT 5SM UP BR OVC007 M07/M07 A2994 RMK AO2 SLP169 P0000 60000 T10671072 56017 FZRANO TSNO
KCIU 200847Z AUTO 08009KT 4SM UP BR OVC007 M07/M07 A2996 RMK AO2 P0000 FZRANO
KCIU 200834Z AUTO 08009KT 2SM UP BR OVC009 M07/M07 A2996 RMK AO2 CIG 007V011 P0000 FZRANO
KCIU 200756Z AUTO 07014KT 6SM UP BR OVC009 M07/M08 A2995 RMK AO2 UPE02B33 CIG 008V012 SLP172 P0000 T10671078 FZRANO
KCIU 200656Z AUTO 08013KT 7SM UP OVC013 M07/M08 A2998 RMK AO2 UPE0557B21 SLP181 P0000 T10671078 FZRANO
KCIU 200556Z AUTO 08012KT 10SM UP OVC013 M07/M08 A3000 RMK AO2 UPB49SNB37E49 SLP187 P0000 60000 T10671083 11017 21067 55004 FZRANO
KCIU 200539Z AUTO 08012KT 10SM -SN OVC013 M07/M08 A2999 RMK AO2 SNB37 P0000 FZRANO
KCIU 200456Z AUTO 08015KT 10SM OVC015 M07/M08 A2999 RMK AO2 SNE08 SLP183 P0000 T10671083 400221067 FZRANO
KCIU 200356Z AUTO 09012KT 8SM -SN OVC015 M06/M08 A2999 RMK AO2 SLP186 P0000 T10611078 FZRANO
KCIU 200256Z AUTO 07011KT 7SM -SN OVC012 M06/M08 A3001 RMK AO2 UPB25E29SNE25B38 SLP191 P0000 60000 T10561083 52001 FZRANO
KCIU 200156Z AUTO 05011KT 9SM -SN OVC012 M06/M07 A3002 RMK AO2 SNB02 SLP192 P0000 T10561072 FZRANO
KCIU 200056Z AUTO 05014KT 10SM OVC012 M04/M07 A2999 RMK AO2 UPE13SNB13E43 SLP187 P0000 T10391067 FZRANO
KCIU 200041Z AUTO 06013KT 9SM -SN SCT008 OVC012 M04/M06 A3002 RMK AO2 UPE13SNB13 P0000 FZRANO
KCIU 192356Z AUTO 06012KT 10SM UP SCT006 BKN009 OVC017 M02/M03 A3001 RMK AO2 RAB04E41UPB41SNE04 SLP188 P0000 60000 T10171033 10022 21017 50013 FZRANO
KCIU 192351Z AUTO 05014KT 10SM UP SCT009 OVC017 M01/M03 A3001 RMK AO2 RAB04E41UPB41SNE04 P0000 FZRANO
KCIU 192305Z AUTO 06005KT 3SM -RA BR FEW021 BKN027 OVC043 01/M01 A2998 RMK AO2 RAB04SNE04 P0000 FZRANO
KCIU 192256Z AUTO 07005KT 2 1/2SM -SN BR FEW027 BKN034 OVC055 01/M01 A2998 RMK AO2 RAE25UPB11E23SNB25 SLP180 P0000 T00061006 FZRANO
KCIU 192249Z AUTO 09004KT 2 1/2SM -SN BR BKN034 BKN045 OVC050 01/M01 A2998 RMK AO2 RAE25UPB11E23SNB25 P0000 FZRANO
KCIU 192213Z AUTO 07006KT 5SM UP BR SCT024 OVC034 01/M01 A2996 RMK AO2 RAE11UPB11 P0000 FZRANO
KCIU 192156Z AUTO 06005KT 5SM -RA BR SCT016 OVC024 01/M01 A2997 RMK AO2 UPB01E05RAB20SNE01B05E20 SLP174 P0000 T00061006 FZRANO
KCIU 192121Z AUTO 05005KT 3SM -RA BR BKN014 OVC018 01/M01 A2997 RMK AO2 UPB01E05RAB20SNE01B05E20 P0000 FZRANO
KCIU 192108Z AUTO 04007KT 1 1/4SM -SN BR BKN020 OVC025 01/M01 A2997 RMK AO2 UPB01E05SNE01B05 P0000 FZRANO
KCIU 192056Z AUTO 05007KT 2 1/2SM -SN OVC025 02/M02 A2997 RMK AO2 VIS 1 1/4V5 UPB35E37RAB37E52SNB52 SLP176 P0000 60000 T00171017 50001 FZRANO
KCIU 191956Z AUTO 04005KT 9SM OVC025 02/M02 A2997 RMK AO2 SLP179 T00171022 FZRANO
KCIU 191856Z AUTO 02004KT 9SM OVC019 02/M02 A2999 RMK AO2 SLP185 T00171022 FZRANO
KCIU 191756Z AUTO 01007KT 9SM SCT023 BKN028 OVC070 02/M02 A2996 RMK AO2 SLP176 T00221017 10022 21022 53004 FZRANO
KCIU 191753Z AUTO 01006KT 9SM SCT022 BKN028 OVC070 02/M02 A2997 RMK AO2 FZRANO
KCIU 191712Z AUTO 05004KT 9SM SCT022 OVC070 02/M02 A2995 RMK AO2 FZRANO
KCIU 191656Z AUTO 05004KT 9SM BKN022 OVC070 02/M02 A2994 RMK AO2 SLP168 T00171022 FZRANO